Time;durP1;ratioP1;P1;durP2;ratioP2;P2;SDS_P1;SDS_P2;PMS_P1;PMS_P2;Temp;Humidity;BMP_temperature;BMP_pressure;BME280_temperature;BME280_humidity;BME280_pressure;Samples;Min_cycle;Max_cycle;Signal;HPM_P1;HPM_P2
2022/05/16 00:01:34;;;;;;;2.70;2.50;;;23.70;56.70;;;;;;5032693;28;20441;-63
2022/05/16 00:04:01;;;;;;;2.97;2.80;;;23.70;57.20;;;;;;5034990;28;20547;-63
2022/05/16 00:06:28;;;;;;;3.17;3.00;;;23.70;56.60;;;;;;5034758;28;20441;-63
2022/05/16 00:08:55;;;;;;;2.70;2.57;;;23.70;56.60;;;;;;5035047;28;20780;-62
2022/05/16 00:11:22;;;;;;;2.73;2.60;;;23.70;56.60;;;;;;5034773;28;20558;-62
2022/05/16 00:13:49;;;;;;;2.10;2.00;;;23.70;56.50;;;;;;5062978;22;20499;-58
2022/05/16 00:16:16;;;;;;;3.70;3.00;;;23.70;56.40;;;;;;5054041;28;21007;-57
2022/05/16 00:18:44;;;;;;;2.57;2.47;;;23.70;56.50;;;;;;5054747;28;20785;-57
2022/05/16 00:21:11;;;;;;;3.10;2.90;;;23.60;56.30;;;;;;5054590;28;20451;-57
2022/05/16 00:23:38;;;;;;;2.73;2.53;;;23.60;56.50;;;;;;5054486;28;20466;-59
2022/05/16 00:26:05;;;;;;;6.83;2.53;;;23.60;56.50;;;;;;5036381;28;20445;-54
2022/05/16 00:28:31;;;;;;;2.53;2.33;;;23.70;56.70;;;;;;5034291;28;20445;-56
2022/05/16 00:30:58;;;;;;;3.10;2.80;;;23.60;56.50;;;;;;5034636;28;20452;-55
2022/05/16 00:33:25;;;;;;;2.90;2.70;;;23.60;56.50;;;;;;5034406;28;20958;-56
2022/05/16 00:35:53;;;;;;;3.67;3.37;;;23.60;56.40;;;;;;5034049;28;20532;-55
2022/05/16 00:38:20;;;;;;;4.90;3.73;;;23.60;56.40;;;;;;5034266;28;20457;-58
2022/05/16 00:40:47;;;;;;;3.30;3.07;;;23.60;56.40;;;;;;5034376;28;20445;-58
2022/05/16 00:43:14;;;;;;;2.87;2.67;;;23.60;56.50;;;;;;5034551;28;20445;-58
2022/05/16 00:45:42;;;;;;;2.60;2.50;;;23.60;56.60;;;;;;5033820;28;20456;-58
2022/05/16 00:48:09;;;;;;;3.17;2.97;;;23.60;56.50;;;;;;5034156;28;20452;-59
2022/05/16 00:50:39;;;;;;;4.07;3.30;;;23.60;56.50;;;;;;5034284;28;20459;-59
2022/05/16 00:53:08;;;;;;;4.70;2.67;;;23.50;56.50;;;;;;5034162;28;20542;-59
2022/05/16 00:55:37;;;;;;;3.57;3.20;;;23.50;56.60;;;;;;5033840;28;20469;-58
2022/05/16 00:58:09;;;;;;;2.10;2.00;;;23.50;56.50;;;;;;5033771;28;20456;-59
2022/05/16 01:00:39;;;;;;;2.60;2.40;;;23.50;56.50;;;;;;5033982;28;20445;-58
2022/05/16 01:05:55;;;;;;;2.63;2.43;;;23.50;56.30;;;;;;5033598;28;20421;-58
2022/05/16 01:08:25;;;;;;;2.77;2.57;;;23.50;56.40;;;;;;5033308;28;20446;-58
2022/05/16 01:10:53;;;;;;;3.43;3.00;;;23.50;56.40;;;;;;5033925;28;20445;-59
2022/05/16 01:13:24;;;;;;;3.30;2.73;;;23.50;56.40;;;;;;5032825;28;20477;-58
2022/05/16 01:15:51;;;;;;;2.67;2.57;;;23.50;56.30;;;;;;5033683;28;20455;-58
2022/05/16 01:18:20;;;;;;;2.53;2.37;;;23.50;56.20;;;;;;5033404;28;20834;-59
2022/05/16 01:21:00;;;;;;;2.70;2.50;;;23.50;56.20;;;;;;5033567;28;20451;-59
2022/05/16 01:23:32;;;;;;;2.50;2.30;;;23.50;56.40;;;;;;5033596;28;20866;-57
2022/05/16 01:26:01;;;;;;;2.70;2.50;;;23.50;56.40;;;;;;5033374;28;20445;-57
2022/05/16 01:28:28;;;;;;;2.80;2.50;;;23.50;56.30;;;;;;5033388;28;20464;-58
2022/05/16 01:30:55;;;;;;;2.90;2.70;;;23.40;56.20;;;;;;5033061;28;20495;-56
2022/05/16 01:33:25;;;;;;;3.03;2.70;;;23.40;56.00;;;;;;5033270;28;20488;-55
2022/05/16 01:35:53;;;;;;;2.83;2.63;;;23.50;56.00;;;;;;5033187;28;20481;-57
2022/05/16 01:38:22;;;;;;;2.87;2.67;;;23.40;56.00;;;;;;5032968;28;20445;-58
2022/05/16 01:40:52;;;;;;;2.87;2.67;;;23.40;56.00;;;;;;5013548;28;20528;-60
2022/05/16 01:43:21;;;;;;;4.83;2.83;;;23.40;56.10;;;;;;5013204;28;20457;-57
2022/05/16 01:45:48;;;;;;;3.20;3.00;;;23.50;56.10;;;;;;5013199;28;20484;-58
2022/05/16 01:48:17;;;;;;;3.17;3.00;;;23.50;56.20;;;;;;5026313;28;21236;-58
2022/05/16 01:50:45;;;;;;;2.80;2.07;;;23.40;56.10;;;;;;5032984;28;20460;-56
2022/05/16 01:53:13;;;;;;;6.97;2.80;;;23.40;56.10;;;;;;5032816;28;20492;-58
2022/05/16 01:55:40;;;;;;;2.60;2.40;;;23.40;56.20;;;;;;5032979;28;20441;-58
2022/05/16 01:58:09;;;;;;;2.50;2.40;;;23.40;56.20;;;;;;5032583;28;20445;-59
2022/05/16 02:00:37;;;;;;;2.20;2.10;;;23.40;56.20;;;;;;5032579;28;20456;-58
2022/05/16 02:03:05;;;;;;;2.57;2.47;;;23.40;56.10;;;;;;5032914;28;20448;-56
2022/05/16 02:05:32;;;;;;;2.70;2.50;;;23.40;56.00;;;;;;5032623;28;20465;-59
2022/05/16 02:07:59;;;;;;;2.57;2.40;;;23.40;55.90;;;;;;5032620;28;20453;-58
2022/05/16 02:10:27;;;;;;;2.67;2.57;;;23.40;56.00;;;;;;5032413;28;20437;-57
2022/05/16 02:12:56;;;;;;;3.23;2.80;;;23.40;56.20;;;;;;5032548;28;20488;-59
2022/05/16 02:15:27;;;;;;;2.77;2.40;;;23.40;56.40;;;;;;5032737;28;20510;-56
2022/05/16 02:17:54;;;;;;;3.00;2.70;;;23.40;56.50;;;;;;5032374;28;20445;-57
2022/05/16 02:20:21;;;;;;;3.10;2.90;;;23.40;56.40;;;;;;5032419;28;20441;-57
2022/05/16 02:25:33;;;;;;;2.77;2.67;;;23.40;56.30;;;;;;5031469;28;20444;-58
2022/05/16 02:28:00;;;;;;;4.97;2.90;;;23.40;56.40;;;;;;5032128;28;20514;-58
2022/05/16 02:30:28;;;;;;;2.13;2.00;;;23.40;56.30;;;;;;5032401;28;20804;-57
2022/05/16 02:32:55;;;;;;;2.67;2.57;;;23.40;56.30;;;;;;5032124;28;20481;-56
2022/05/16 02:35:22;;;;;;;3.50;3.27;;;23.40;56.40;;;;;;5031824;28;20457;-58
2022/05/16 02:37:49;;;;;;;2.67;2.43;;;23.40;56.50;;;;;;5031991;28;20942;-58
2022/05/16 02:40:16;;;;;;;2.80;2.60;;;23.30;56.50;;;;;;5032130;28;20467;-56
2022/05/16 02:42:43;;;;;;;2.63;2.37;;;23.30;56.60;;;;;;5032178;28;20441;-58
2022/05/16 02:45:10;;;;;;;2.70;2.60;;;23.40;56.70;;;;;;5032248;28;20461;-57
2022/05/16 02:47:39;;;;;;;2.93;2.70;;;23.30;56.50;;;;;;5031443;28;20448;-58
2022/05/16 02:50:06;;;;;;;2.90;2.80;;;23.30;56.40;;;;;;5032042;28;20441;-55
2022/05/16 02:52:33;;;;;;;2.80;2.60;;;23.30;56.20;;;;;;5031896;28;20484;-55
2022/05/16 02:55:01;;;;;;;3.23;2.93;;;23.30;56.10;;;;;;5031279;28;21108;-57
2022/05/16 02:57:28;;;;;;;3.53;2.80;;;23.30;56.10;;;;;;5031813;28;20495;-56
2022/05/16 02:59:55;;;;;;;3.43;3.00;;;23.30;56.30;;;;;;5032082;28;20457;-55
2022/05/16 03:02:22;;;;;;;3.00;2.80;;;23.30;56.50;;;;;;5031845;28;20857;-58
2022/05/16 03:04:50;;;;;;;2.93;2.73;;;23.30;56.50;;;;;;5031679;28;20473;-56
2022/05/16 03:07:18;;;;;;;2.97;2.77;;;23.30;56.60;;;;;;5031499;28;20453;-59
2022/05/16 03:09:46;;;;;;;3.10;2.90;;;23.30;56.60;;;;;;5031661;28;20457;-59
2022/05/16 03:12:13;;;;;;;2.83;2.67;;;23.30;56.70;;;;;;5031605;28;20572;-60
2022/05/16 03:14:40;;;;;;;2.67;2.53;;;23.30;56.70;;;;;;5031481;28;20477;-58
2022/05/16 03:17:07;;;;;;;3.30;3.00;;;23.30;56.90;;;;;;5031137;28;20460;-58
2022/05/16 03:19:35;;;;;;;2.27;2.17;;;23.20;57.00;;;;;;5031359;28;20445;-57
2022/05/16 03:22:04;;;;;;;2.60;2.50;;;23.30;57.10;;;;;;5031576;28;20475;-57
2022/05/16 03:24:31;;;;;;;3.10;2.90;;;23.30;57.10;;;;;;5031514;28;20469;-58
2022/05/16 03:26:58;;;;;;;3.33;3.03;;;23.30;57.00;;;;;;5031263;28;20460;-59
2022/05/16 03:29:25;;;;;;;2.63;2.53;;;23.30;57.20;;;;;;5031474;28;20449;-58
2022/05/16 03:31:52;;;;;;;3.40;3.10;;;23.30;57.10;;;;;;5031388;28;20931;-59
2022/05/16 03:34:19;;;;;;;3.77;3.50;;;23.30;57.10;;;;;;5031483;28;20489;-57
2022/05/16 03:36:46;;;;;;;3.30;3.10;;;23.20;57.10;;;;;;5033388;28;20448;-58
2022/05/16 03:41:59;;;;;;;2.67;2.47;;;23.30;57.00;;;;;;5035523;28;20455;-56
2022/05/16 03:44:26;;;;;;;3.00;2.80;;;23.30;57.00;;;;;;5035275;28;20997;-56
2022/05/16 03:46:53;;;;;;;2.27;2.17;;;23.30;57.20;;;;;;5035151;28;20448;-59
2022/05/16 03:49:19;;;;;;;2.93;2.70;;;23.20;57.20;;;;;;5035149;28;20962;-58
2022/05/16 03:51:47;;;;;;;5.60;3.20;;;23.10;57.10;;;;;;5035298;28;20456;-57
2022/05/16 03:54:17;;;;;;;2.93;2.83;;;23.20;57.30;;;;;;5035251;28;20484;-57
2022/05/16 04:08:13;;;;;;;6.10;3.33;;;23.10;57.30;;;;;;5108786;27;20356;-51
2022/05/16 04:10:39;;;;;;;2.60;2.40;;;23.40;57.70;;;;;;5088825;28;20430;-50
2022/05/16 04:13:06;;;;;;;5.47;4.10;;;23.40;57.60;;;;;;5088794;28;20434;-51
2022/05/16 04:15:33;;;;;;;3.77;3.53;;;23.40;57.50;;;;;;5079426;28;20523;-57
2022/05/16 04:18:00;;;;;;;6.03;2.30;;;23.30;57.30;;;;;;5068255;28;20460;-53
2022/05/16 04:20:26;;;;;;;2.70;2.50;;;23.30;57.40;;;;;;5091578;23;20476;-53
2022/05/16 04:22:53;;;;;;;3.13;2.80;;;23.30;57.40;;;;;;5068349;28;20435;-52
2022/05/16 04:25:22;;;;;;;2.60;2.50;;;23.30;57.40;;;;;;5068091;28;20436;-53
2022/05/16 04:27:48;;;;;;;2.90;2.70;;;23.30;57.30;;;;;;5068131;28;20432;-51
2022/05/16 04:30:15;;;;;;;2.60;2.50;;;23.30;57.30;;;;;;5068480;28;20470;-52
2022/05/16 04:32:42;;;;;;;2.87;2.67;;;23.30;57.20;;;;;;5068256;28;20448;-52
2022/05/16 04:35:10;;;;;;;3.33;2.50;;;23.20;57.20;;;;;;5060623;28;20531;-51
2022/05/16 04:37:37;;;;;;;4.10;2.50;;;23.30;57.30;;;;;;5048051;28;20511;-54
2022/05/16 04:40:06;;;;;;;2.73;2.53;;;23.30;57.20;;;;;;5048635;28;20440;-57
2022/05/16 04:42:43;;;;;;;2.80;2.57;;;23.30;57.20;;;;;;5053849;28;20448;-51
2022/05/16 04:45:14;;;;;;;2.70;2.50;;;23.30;57.30;;;;;;5068039;28;20443;-51
2022/05/16 04:47:40;;;;;;;2.93;2.80;;;23.30;57.40;;;;;;5067796;28;20446;-52
2022/05/16 04:50:08;;;;;;;5.57;3.73;;;23.30;57.20;;;;;;5067553;28;20452;-49
2022/05/16 04:52:35;;;;;;;3.10;2.90;;;23.30;57.20;;;;;;5047990;28;20460;-52
2022/05/16 04:55:02;;;;;;;5.63;4.27;;;23.30;57.60;;;;;;5047890;28;21114;-49
2022/05/16 04:57:29;;;;;;;10.27;5.23;;;23.30;58.60;;;;;;5047682;28;20495;-52
2022/05/16 04:59:57;;;;;;;6.00;3.60;;;23.30;59.70;;;;;;5059328;28;20448;-50
2022/05/16 05:02:24;;;;;;;9.13;5.43;;;23.30;60.00;;;;;;5067626;28;20454;-51
2022/05/16 05:04:51;;;;;;;12.43;4.70;;;23.30;60.50;;;;;;5067489;28;20444;-51
2022/05/16 05:07:17;;;;;;;8.90;3.97;;;23.40;62.10;;;;;;5064387;28;20440;-54
2022/05/16 05:15:17;;;;;;;8.70;4.67;;;23.40;63.70;;;;;;5054323;28;20791;-51
2022/05/16 05:17:44;;;;;;;6.30;4.20;;;23.40;63.00;;;;;;5054010;28;20484;-50
2022/05/16 05:20:14;;;;;;;5.97;4.07;;;23.40;62.70;;;;;;5053793;28;20945;-50
2022/05/16 05:22:41;;;;;;;7.03;4.23;;;23.40;62.50;;;;;;5054063;28;20444;-51
2022/05/16 05:25:11;;;;;;;7.90;3.50;;;23.40;62.40;;;;;;5053966;28;20506;-52
2022/05/16 05:27:39;;;;;;;3.40;3.20;;;23.40;62.00;;;;;;5053757;28;20440;-52
2022/05/16 05:30:07;;;;;;;7.17;3.53;;;23.40;61.50;;;;;;5053802;28;20452;-51
2022/05/16 05:32:35;;;;;;;4.13;3.50;;;23.40;61.30;;;;;;5053814;28;20538;-51
2022/05/16 05:35:03;;;;;;;4.07;3.63;;;23.40;61.10;;;;;;5053874;28;20452;-53
2022/05/16 05:37:29;;;;;;;4.07;3.00;;;23.50;61.20;;;;;;5053592;28;20483;-52
2022/05/16 05:39:58;;;;;;;5.27;3.40;;;23.50;60.90;;;;;;5053472;28;20447;-51
2022/05/16 05:42:25;;;;;;;5.70;3.70;;;23.40;60.60;;;;;;5053668;28;20444;-53
2022/05/16 05:44:52;;;;;;;3.77;3.47;;;23.40;60.30;;;;;;5053682;28;20451;-51
2022/05/16 05:47:19;;;;;;;5.20;3.90;;;23.40;60.00;;;;;;5053316;28;20461;-50
2022/05/16 05:49:47;;;;;;;3.20;2.97;;;23.40;59.90;;;;;;5053470;28;20451;-53
2022/05/16 05:52:15;;;;;;;3.50;2.93;;;23.40;59.80;;;;;;5053412;28;20471;-55
2022/05/16 05:54:42;;;;;;;3.70;2.50;;;23.40;59.70;;;;;;5053335;28;20452;-55
2022/05/16 05:57:09;;;;;;;3.40;2.40;;;23.50;59.70;;;;;;5053051;28;20480;-51
2022/05/16 05:59:36;;;;;;;3.07;2.80;;;23.40;59.40;;;;;;5053270;28;20451;-57
2022/05/16 06:02:03;;;;;;;4.37;3.20;;;23.40;59.30;;;;;;5053246;28;20465;-50
2022/05/16 06:04:30;;;;;;;2.60;2.40;;;23.40;59.20;;;;;;5053344;28;20444;-55
2022/05/16 06:06:58;;;;;;;3.33;2.70;;;23.40;59.20;;;;;;5053103;28;20440;-54
2022/05/16 06:09:26;;;;;;;2.77;2.53;;;23.40;59.20;;;;;;5052965;28;20932;-55
2022/05/16 06:11:53;;;;;;;2.40;2.30;;;23.50;59.20;;;;;;5053293;28;20468;-50
2022/05/16 06:14:20;;;;;;;2.80;2.60;;;23.40;59.20;;;;;;5053137;28;20440;-53
2022/05/16 06:16:47;;;;;;;2.63;2.10;;;23.50;59.30;;;;;;5052766;28;20480;-51
2022/05/16 06:19:13;;;;;;;3.40;3.20;;;23.50;59.10;;;;;;5051925;28;20454;-52
2022/05/16 06:21:40;;;;;;;2.90;2.77;;;23.50;59.00;;;;;;5052783;28;20563;-54
2022/05/16 06:25:31;;;;;;;3.13;2.60;;;23.50;59.00;;;;;;5052865;28;20535;-53
2022/05/16 06:26:57;;;;;;;4.20;2.53;;;23.50;59.10;;;;;;5052885;28;20503;-53
2022/05/16 06:29:25;;;;;;;2.33;2.13;;;23.50;59.00;;;;;;5052779;28;20530;-54
2022/05/16 06:31:51;;;;;;;4.30;2.20;;;23.50;58.90;;;;;;5052712;28;20468;-52
2022/05/16 06:34:18;;;;;;;4.20;2.27;;;23.50;58.80;;;;;;5052691;28;20451;-51
2022/05/16 06:36:45;;;;;;;3.60;3.17;;;23.50;59.00;;;;;;5052394;28;20479;-56
2022/05/16 06:39:13;;;;;;;2.97;2.70;;;23.50;58.90;;;;;;5052540;28;20444;-51
2022/05/16 06:41:40;;;;;;;2.80;2.30;;;23.50;58.90;;;;;;5052408;28;20950;-51
2022/05/16 06:44:09;;;;;;;2.87;2.60;;;23.50;58.90;;;;;;5052527;28;20806;-51
2022/05/16 06:46:36;;;;;;;2.70;2.60;;;23.50;58.90;;;;;;5052420;28;20491;-53
2022/05/16 06:49:03;;;;;;;2.67;2.47;;;23.50;59.00;;;;;;5052091;28;20448;-51
2022/05/16 06:51:29;;;;;;;4.07;3.17;;;23.50;58.90;;;;;;5052233;28;20967;-52
2022/05/16 06:53:56;;;;;;;3.43;3.23;;;23.50;58.90;;;;;;5052225;28;20444;-52
2022/05/16 06:56:24;;;;;;;2.93;2.60;;;23.50;58.90;;;;;;5052101;28;20452;-51
2022/05/16 06:58:51;;;;;;;3.13;2.93;;;23.50;58.90;;;;;;5052035;28;20444;-54
2022/05/16 07:01:18;;;;;;;2.50;2.30;;;23.50;58.80;;;;;;5052202;28;20464;-50
2022/05/16 07:03:44;;;;;;;2.80;2.57;;;23.50;58.80;;;;;;5052139;28;20448;-51
2022/05/16 07:06:14;;;;;;;2.90;2.77;;;23.50;58.80;;;;;;5052062;28;20441;-52
2022/05/16 07:08:41;;;;;;;2.40;2.27;;;23.50;58.90;;;;;;5051792;28;20448;-50
2022/05/16 07:11:08;;;;;;;2.47;2.37;;;23.50;58.90;;;;;;5051962;28;20460;-51
2022/05/16 07:13:36;;;;;;;2.50;2.40;;;23.50;59.00;;;;;;5052146;28;20449;-51
2022/05/16 07:16:04;;;;;;;4.10;2.57;;;23.50;58.90;;;;;;5051963;28;20451;-50
2022/05/16 07:18:31;;;;;;;2.53;2.33;;;23.50;59.00;;;;;;5051631;28;20488;-51
2022/05/16 07:20:59;;;;;;;2.80;2.60;;;23.50;59.00;;;;;;5051682;28;20480;-50
2022/05/16 07:23:26;;;;;;;2.00;1.77;;;23.50;59.00;;;;;;5051779;28;20496;-50
2022/05/16 07:28:39;;;;;;;2.70;2.50;;;23.50;58.90;;;;;;5051696;28;20842;-51
2022/05/16 07:31:05;;;;;;;3.47;2.67;;;23.50;58.90;;;;;;5051540;28;20822;-56
2022/05/16 07:33:32;;;;;;;2.60;2.10;;;23.50;59.00;;;;;;5051795;28;20448;-54
2022/05/16 07:35:59;;;;;;;2.90;2.77;;;23.50;59.20;;;;;;5051673;28;20440;-50
2022/05/16 07:38:26;;;;;;;3.33;3.13;;;23.50;59.60;;;;;;5051254;28;20495;-50
2022/05/16 07:40:54;;;;;;;3.60;2.60;;;23.50;59.90;;;;;;5051596;28;20846;-52
2022/05/16 07:43:22;;;;;;;2.33;2.23;;;23.50;59.50;;;;;;5051547;28;20448;-50
2022/05/16 07:45:50;;;;;;;2.43;2.23;;;23.50;59.70;;;;;;5051511;28;20440;-51
2022/05/16 07:48:17;;;;;;;2.60;2.40;;;23.50;60.30;;;;;;5051332;28;20459;-56
2022/05/16 07:50:45;;;;;;;2.90;2.70;;;23.50;60.80;;;;;;5051329;28;20997;-50
2022/05/16 07:53:13;;;;;;;3.73;2.40;;;23.50;60.80;;;;;;5051393;28;20451;-51
2022/05/16 07:55:42;;;;;;;3.00;2.80;;;23.50;61.30;;;;;;5051523;28;20818;-50
2022/05/16 07:58:09;;;;;;;2.43;2.33;;;23.50;61.30;;;;;;5051192;28;20491;-51
2022/05/16 08:00:36;;;;;;;3.70;3.40;;;23.50;60.70;;;;;;5051338;28;20471;-50
2022/05/16 08:03:04;;;;;;;2.23;2.10;;;23.50;61.40;;;;;;5051396;28;20455;-50
2022/05/16 08:05:34;;;;;;;2.20;2.10;;;23.50;61.30;;;;;;5051573;28;20440;-52
2022/05/16 08:10:46;;;;;;;8.50;2.70;;;23.50;62.40;;;;;;5051371;28;20567;-52
2022/05/16 08:13:13;;;;;;;4.20;4.00;;;23.50;62.50;;;;;;5051275;28;20951;-51
2022/05/16 08:15:41;;;;;;;2.47;2.37;;;23.50;61.90;;;;;;5051319;28;20444;-51
2022/05/16 08:18:12;;;;;;;4.10;2.23;;;23.50;62.80;;;;;;5051020;28;20488;-50
2022/05/16 08:20:42;;;;;;;3.40;1.93;;;23.50;63.50;;;;;;5051076;28;20479;-50
2022/05/16 08:23:09;;;;;;;4.40;2.83;;;23.50;62.20;;;;;;5051245;28;20444;-50
2022/05/16 08:25:36;;;;;;;2.33;2.23;;;23.50;62.80;;;;;;5051240;28;20448;-52
2022/05/16 08:28:03;;;;;;;2.37;2.17;;;23.50;62.80;;;;;;5050891;28;20444;-50
2022/05/16 08:30:30;;;;;;;3.40;3.20;;;23.50;63.00;;;;;;5051003;28;20554;-51
2022/05/16 08:32:58;;;;;;;2.67;2.47;;;23.50;63.80;;;;;;5051095;28;20961;-51
2022/05/16 08:35:26;;;;;;;2.70;2.50;;;23.50;63.80;;;;;;5050988;28;20518;-51
2022/05/16 08:40:46;;;;;;;3.20;2.40;;;23.50;64.40;;;;;;5051117;28;20439;-55
2022/05/16 08:43:17;;;;;;;2.60;2.50;;;23.50;64.20;;;;;;5052482;28;20455;-51
2022/05/16 08:45:58;;;;;;;2.50;2.30;;;23.50;65.10;;;;;;5054778;28;20447;-55
2022/05/16 08:48:30;;;;;;;4.23;3.87;;;23.50;65.00;;;;;;5054556;28;20520;-52
2022/05/16 08:51:04;;;;;;;2.90;2.70;;;23.50;65.30;;;;;;5054567;28;20475;-55
2022/05/16 08:53:35;;;;;;;2.20;2.10;;;23.50;65.70;;;;;;5054701;28;20452;-54
2022/05/16 08:56:06;;;;;;;2.43;2.33;;;23.50;66.30;;;;;;5054858;28;20444;-50
2022/05/16 08:58:39;;;;;;;2.67;2.50;;;23.60;66.00;;;;;;5054383;28;20480;-54
2022/05/16 09:01:08;;;;;;;2.70;2.60;;;23.50;65.00;;;;;;5054518;28;20463;-51
2022/05/16 09:03:40;;;;;;;3.40;3.10;;;23.60;65.20;;;;;;5054588;28;20444;-53
2022/05/16 09:06:15;;;;;;;3.27;2.80;;;23.50;65.80;;;;;;5054495;28;20444;-51
2022/05/16 09:08:49;;;;;;;3.63;3.10;;;23.60;66.20;;;;;;5054335;28;20479;-51
2022/05/16 09:11:20;;;;;;;3.27;3.07;;;23.50;66.80;;;;;;5054399;28;20557;-51
2022/05/16 09:13:52;;;;;;;3.50;2.90;;;23.50;66.80;;;;;;5054382;28;20459;-55
2022/05/16 09:16:42;;;;;;;2.53;2.33;;;23.50;66.30;;;;;;5054281;28;20494;-56
2022/05/16 09:19:32;;;;;;;2.10;1.90;;;23.60;66.00;;;;;;5051445;28;20479;-56
2022/05/16 09:22:09;;;;;;;2.83;2.10;;;23.60;65.80;;;;;;5045050;28;20545;-57
2022/05/16 09:24:39;;;;;;;2.57;2.37;;;23.60;66.30;;;;;;5054181;28;20444;-55
2022/05/16 09:27:10;;;;;;;2.53;2.33;;;23.60;66.00;;;;;;5053920;28;20502;-56
2022/05/16 09:29:39;;;;;;;2.27;2.17;;;23.60;66.10;;;;;;5053868;28;20444;-54
2022/05/16 09:32:12;;;;;;;2.83;2.63;;;23.60;66.50;;;;;;5053859;28;20464;-53
2022/05/16 09:34:39;;;;;;;2.87;2.20;;;23.60;65.70;;;;;;5053985;28;20444;-54
2022/05/16 09:37:08;;;;;;;1.93;1.93;;;23.70;66.40;;;;;;5053890;28;20444;-50
2022/05/16 09:39:35;;;;;;;2.60;2.50;;;23.60;66.70;;;;;;5053750;28;20470;-52
2022/05/16 09:42:04;;;;;;;3.13;2.90;;;23.60;65.70;;;;;;5053683;28;20472;-51
2022/05/16 09:44:33;;;;;;;2.87;2.70;;;23.70;65.40;;;;;;5053955;28;20837;-50
2022/05/16 09:47:22;;;;;;;2.53;2.43;;;23.70;65.60;;;;;;5053469;28;20440;-51
2022/05/16 09:50:06;;;;;;;2.80;2.33;;;23.70;65.20;;;;;;5053403;28;20858;-51
2022/05/16 09:52:37;;;;;;;2.20;2.00;;;23.70;65.40;;;;;;5053680;28;20440;-51
2022/05/16 09:55:07;;;;;;;2.90;2.70;;;23.70;65.30;;;;;;5053418;28;20436;-50
2022/05/16 09:57:40;;;;;;;2.07;1.90;;;23.70;66.20;;;;;;5053379;28;20475;-52
2022/05/16 10:00:22;;;;;;;2.10;2.00;;;23.70;65.40;;;;;;5053427;28;20448;-50
2022/05/16 10:02:56;;;;;;;2.27;2.17;;;23.70;65.20;;;;;;5053349;28;20448;-50
2022/05/16 10:05:26;;;;;;;2.50;2.30;;;23.70;65.00;;;;;;5053207;28;20460;-51
2022/05/16 10:08:02;;;;;;;2.23;2.13;;;23.70;64.80;;;;;;5053122;28;20784;-50
2022/05/16 10:10:33;;;;;;;2.77;2.63;;;23.80;65.00;;;;;;5053107;28;20463;-51
2022/05/16 10:13:01;;;;;;;2.17;2.07;;;23.80;64.90;;;;;;5053132;28;20452;-51
2022/05/16 10:15:28;;;;;;;2.27;2.20;;;23.80;65.60;;;;;;5053083;28;20440;-52
2022/05/16 10:17:57;;;;;;;2.30;2.10;;;23.80;64.60;;;;;;5052710;28;20851;-50
2022/05/16 10:20:28;;;;;;;2.00;1.90;;;23.80;64.70;;;;;;5070010;22;20553;-50
2022/05/16 10:23:02;;;;;;;2.70;2.50;;;23.80;64.60;;;;;;5051971;28;20471;-51
2022/05/16 10:25:34;;;;;;;2.50;2.40;;;23.80;64.80;;;;;;5052893;28;20531;-53
2022/05/16 10:28:03;;;;;;;2.20;2.10;;;23.90;64.80;;;;;;5052708;28;20447;-54
2022/05/16 10:33:24;;;;;;;2.20;2.10;;;23.80;64.70;;;;;;5050720;28;20488;-55
2022/05/16 10:33:27;;;;;;;2.80;2.60;;;23.90;64.80;;;;;;5032762;28;20444;-52
2022/05/16 10:35:59;;;;;;;3.00;2.90;;;23.90;64.90;;;;;;5032850;28;20436;-50
2022/05/16 10:38:34;;;;;;;2.87;2.67;;;23.90;64.90;;;;;;5032463;28;20891;-51
2022/05/16 10:41:04;;;;;;;2.10;2.00;;;23.90;64.90;;;;;;5032568;28;20472;-54
2022/05/16 10:43:39;;;;;;;3.90;2.10;;;23.90;65.20;;;;;;5032683;28;20449;-53
2022/05/16 10:46:10;;;;;;;2.17;2.07;;;23.90;64.70;;;;;;5032585;28;20449;-50
2022/05/16 10:48:41;;;;;;;2.20;2.10;;;23.90;65.10;;;;;;5032321;28;20545;-52
2022/05/16 10:51:12;;;;;;;2.57;2.33;;;23.90;64.70;;;;;;5032533;28;20469;-52
2022/05/16 10:53:53;;;;;;;2.53;2.33;;;23.90;64.70;;;;;;5032374;28;20451;-55
2022/05/16 10:56:34;;;;;;;3.80;2.67;;;23.90;64.70;;;;;;5032540;28;20467;-52
2022/05/16 10:59:10;;;;;;;2.80;2.70;;;24.00;65.10;;;;;;5032150;28;20481;-53
2022/05/16 11:01:42;;;;;;;3.33;3.03;;;24.00;66.50;;;;;;5032276;28;20971;-52
2022/05/16 11:04:25;;;;;;;2.80;1.90;;;24.00;65.80;;;;;;5032275;28;20503;-50
2022/05/16 11:07:05;;;;;;;2.50;2.40;;;24.00;65.60;;;;;;5031622;28;20814;-56
2022/05/16 11:09:43;;;;;;;2.30;2.17;;;24.00;65.40;;;;;;5032064;28;20452;-51
2022/05/16 11:12:17;;;;;;;3.20;2.40;;;24.00;64.90;;;;;;5032057;28;20527;-53
2022/05/16 11:14:50;;;;;;;2.60;2.40;;;24.00;65.20;;;;;;5032038;28;20445;-53
2022/05/16 11:17:24;;;;;;;2.33;2.23;;;24.10;66.20;;;;;;5031858;28;20476;-55
2022/05/16 11:20:00;;;;;;;3.03;2.33;;;24.10;66.00;;;;;;5031867;28;20481;-52
2022/05/16 11:22:31;;;;;;;2.20;2.10;;;24.10;65.50;;;;;;5031856;28;20975;-51
2022/05/16 11:25:06;;;;;;;1.97;1.87;;;24.10;65.70;;;;;;5031968;28;20445;-55
2022/05/16 11:27:38;;;;;;;2.03;1.93;;;24.10;66.90;;;;;;5031693;28;20466;-51
2022/05/16 11:30:10;;;;;;;3.20;3.00;;;24.10;65.90;;;;;;5031902;28;20438;-52
2022/05/16 11:32:49;;;;;;;2.83;2.70;;;24.10;65.90;;;;;;5031618;28;20468;-52
2022/05/16 11:35:23;;;;;;;2.43;2.33;;;24.10;66.70;;;;;;5031772;28;20449;-51
2022/05/16 11:38:17;;;;;;;2.63;2.47;;;24.20;67.00;;;;;;5031483;28;20792;-51
2022/05/16 11:40:51;;;;;;;2.80;2.37;;;24.20;67.50;;;;;;5029178;28;20535;-51
2022/05/16 11:43:25;;;;;;;3.13;2.83;;;24.20;67.60;;;;;;5031705;28;20445;-51
2022/05/16 11:46:20;;;;;;;4.87;3.13;;;24.20;67.40;;;;;;5031637;28;20464;-55
2022/05/16 11:48:57;;;;;;;3.70;2.60;;;24.20;67.90;;;;;;5031496;28;20492;-55
2022/05/16 11:51:33;;;;;;;3.60;3.10;;;24.20;68.10;;;;;;5031603;28;20830;-51
2022/05/16 11:54:04;;;;;;;2.50;2.40;;;24.30;69.00;;;;;;5031555;28;20444;-51
2022/05/16 12:02:18;;;;;;;2.97;2.73;;;24.40;72.10;;;;;;5031435;28;20913;-56
2022/05/16 12:04:48;;;;;;;3.03;2.80;;;24.40;71.90;;;;;;5031520;28;20940;-52
2022/05/16 12:07:21;;;;;;;2.90;2.23;;;24.40;72.00;;;;;;5031314;28;20457;-51
2022/05/16 12:09:58;;;;;;;2.70;2.60;;;24.40;72.20;;;;;;5031375;28;20867;-50
2022/05/16 12:12:37;;;;;;;2.53;2.33;;;24.40;73.20;;;;;;5031391;28;20483;-53
2022/05/16 12:15:34;;;;;;;2.73;2.53;;;24.40;73.60;;;;;;5031393;28;20449;-50
2022/05/16 12:18:03;;;;;;;3.97;3.40;;;24.40;73.90;;;;;;5032399;28;20447;-55
2022/05/16 12:20:53;;;;;;;3.70;2.80;;;24.40;73.30;;;;;;5035246;28;20445;-53
2022/05/16 12:23:53;;;;;;;2.77;2.60;;;24.40;72.80;;;;;;5032769;28;20480;-52
2022/05/16 12:26:32;;;;;;;3.50;2.90;;;24.40;71.80;;;;;;5035280;28;20487;-51
2022/05/16 12:29:15;;;;;;;3.03;2.77;;;24.40;72.70;;;;;;5034916;28;20468;-52
2022/05/16 12:31:51;;;;;;;3.33;3.13;;;24.50;73.30;;;;;;5034957;28;20476;-54
2022/05/16 12:34:44;;;;;;;2.80;2.60;;;24.50;73.30;;;;;;5035122;28;20455;-54
2022/05/16 12:37:14;;;;;;;2.37;2.27;;;24.50;73.00;;;;;;5034980;28;20453;-51
2022/05/16 12:39:51;;;;;;;3.53;3.23;;;24.50;73.30;;;;;;5034787;28;20480;-53
2022/05/16 12:42:40;;;;;;;3.67;3.00;;;24.50;72.70;;;;;;5034869;28;20526;-56
2022/05/16 12:45:37;;;;;;;4.40;4.10;;;24.50;73.80;;;;;;5001912;28;20449;-53
2022/05/16 12:48:28;;;;;;;2.70;2.50;;;24.50;74.20;;;;;;5034465;28;20958;-54
2022/05/16 12:51:16;;;;;;;4.30;3.20;;;24.50;73.70;;;;;;5034627;28;20480;-57
2022/05/16 12:54:31;;;;;;;3.10;2.90;;;24.50;75.00;;;;;;5034701;28;20448;-51
2022/05/16 12:56:59;;;;;;;3.83;3.63;;;24.60;77.10;;;;;;4963819;28;20460;-53
2022/05/16 12:59:47;;;;;;;4.80;4.30;;;24.60;78.90;;;;;;5028033;28;20491;-55
2022/05/16 13:02:21;;;;;;;3.90;3.60;;;24.60;78.60;;;;;;5032588;28;20481;-56
2022/05/16 13:05:04;;;;;;;4.93;4.60;;;24.60;79.80;;;;;;5034475;28;20455;-56
2022/05/16 13:07:40;;;;;;;4.53;3.67;;;24.60;78.80;;;;;;5034291;28;20448;-56
2022/05/16 13:10:29;;;;;;;4.63;3.93;;;24.60;79.70;;;;;;5034423;28;20808;-55
2022/05/16 13:13:14;;;;;;;3.50;3.40;;;24.60;76.40;;;;;;5034417;28;20453;-54
2022/05/16 13:15:46;;;;;;;5.73;4.00;;;24.60;78.80;;;;;;5034193;28;20449;-52
2022/05/16 13:18:22;;;;;;;4.60;4.20;;;24.60;81.80;;;;;;5034023;28;20822;-54
2022/05/16 13:20:52;;;;;;;4.30;4.00;;;24.60;82.50;;;;;;5034006;28;20479;-53
2022/05/16 13:23:20;;;;;;;3.90;3.70;;;24.60;82.30;;;;;;5034078;28;20452;-55
2022/05/16 13:31:33;;;;;;;4.23;3.97;;;24.70;82.40;;;;;;5034026;28;20448;-53
2022/05/16 13:34:02;;;;;;;4.00;3.70;;;24.60;81.20;;;;;;5033959;28;20452;-54
2022/05/16 13:36:29;;;;;;;5.10;4.70;;;24.70;84.90;;;;;;5033875;28;20449;-55
2022/05/16 13:38:57;;;;;;;5.20;4.73;;;24.70;85.20;;;;;;5032954;28;20480;-56
2022/05/16 13:41:25;;;;;;;4.47;4.17;;;24.70;87.40;;;;;;5033161;28;20465;-50
2022/05/16 13:43:52;;;;;;;4.30;4.10;;;24.60;87.80;;;;;;5033737;28;20963;-56
2022/05/16 13:46:20;;;;;;;5.40;4.90;;;24.60;91.60;;;;;;5033680;28;20456;-52
2022/05/16 13:48:55;;;;;;;4.83;4.53;;;24.60;93.10;;;;;;5033203;28;20445;-50
2022/05/16 13:51:24;;;;;;;4.50;4.10;;;24.60;92.90;;;;;;5033603;28;20468;-59